CheckWX is a tool to help pilots better visualize weather data.  It is not intended as a substitute for an official pre-flight weather briefing.

12:37:43 UTC

KCNY TAF
Canyonlands Field Airport
Moab, Utah, USA
KCNY 221120Z 2212/2312 VRB04KT P6SM SCT050 BKN090 FM222000 27008KT P6SM VCTS SCT040 BKN060CB FM230000 26004KT P6SM SCT060 BKN080 FM230400 23006KT P6SM FEW040 SCT090

Mar-22@
12:00 UTC

Mar-22 @ 12:00 UTC

Mar-22@
20:00 UTC

Mar-22 @ 20:00 UTC

KCNY 221120Z 2212/2312 VRB04KT P6SM SCT050 BKN090
Wind
  • Variable at 4 KTS
Cloud Levels
  • Scattered at 5,000' AGL
  • Broken at 9,000' AGL

Mar-22@
20:00 UTC

Mar-22 @ 20:00 UTC

Mar-23@
00:00 UTC

Mar-23 @ 00:00 UTC

FM222000 27008KT P6SM VCTS SCT040 BKN060CB

From

From Standard forecast or significant change

Wind
  • 270° at 8 KTS
Conditions
Area Thunderstorm
Cloud Levels
  • Scattered at 4,000' AGL
  • Broken at 6,000' AGL

Mar-23@
00:00 UTC

Mar-23 @ 00:00 UTC

Mar-23@
04:00 UTC

Mar-23 @ 04:00 UTC

FM230000 26004KT P6SM SCT060 BKN080

From

From Standard forecast or significant change

Wind
  • 260° at 4 KTS
Cloud Levels
  • Scattered at 6,000' AGL
  • Broken at 8,000' AGL

Mar-23@
04:00 UTC

Mar-23 @ 04:00 UTC

Mar-23@
12:00 UTC

Mar-23 @ 12:00 UTC

FM230400 23006KT P6SM FEW040 SCT090

From

From Standard forecast or significant change

Wind
  • 230° at 6 KTS
Cloud Levels
  • Few at 4,000' AGL
  • Scattered at 9,000' AGL